createdAt,value
2019-01-29T00:01:28.027Z,2.60
2019-01-29T00:03:56.878Z,2.60
2019-01-29T00:06:25.878Z,2.60
2019-01-29T00:08:54.844Z,2.60
2019-01-29T00:11:23.856Z,2.60
2019-01-29T00:13:52.679Z,2.50
2019-01-29T00:16:21.540Z,2.40
2019-01-29T00:18:50.742Z,2.40
2019-01-29T00:21:19.695Z,2.40
2019-01-29T00:23:48.565Z,2.40
2019-01-29T00:26:17.501Z,2.40
2019-01-29T00:28:46.278Z,2.40
2019-01-29T00:31:15.265Z,2.50
2019-01-29T00:33:44.231Z,2.50
2019-01-29T00:36:13.458Z,2.50
2019-01-29T00:38:42.274Z,2.50
2019-01-29T00:41:11.837Z,2.50
2019-01-29T00:43:40.758Z,2.50
2019-01-29T00:46:10.172Z,2.50
2019-01-29T00:48:39.303Z,2.50
2019-01-29T00:51:08.417Z,2.50
2019-01-29T00:53:37.820Z,2.60
2019-01-29T00:56:06.787Z,2.50
2019-01-29T00:58:35.650Z,2.60
2019-01-29T01:01:05.452Z,2.60
2019-01-29T01:03:34.774Z,2.50
2019-01-29T01:06:03.942Z,2.50
2019-01-29T01:08:33.160Z,2.50
2019-01-29T01:11:02.131Z,2.40
2019-01-29T01:13:31.405Z,2.40
2019-01-29T01:16:00.795Z,2.40
2019-01-29T01:18:29.571Z,2.40
2019-01-29T01:20:58.538Z,2.40
2019-01-29T01:23:27.511Z,2.40
2019-01-29T01:25:56.423Z,2.40
2019-01-29T01:28:25.523Z,2.40
2019-01-29T01:30:54.696Z,2.40
2019-01-29T01:33:23.904Z,2.40
2019-01-29T01:35:52.757Z,2.40
2019-01-29T01:38:21.630Z,2.40
2019-01-29T01:40:50.610Z,2.40
2019-01-29T01:43:19.536Z,2.40
2019-01-29T01:45:48.396Z,2.40
2019-01-29T01:48:17.776Z,2.40
2019-01-29T01:50:46.563Z,2.40
2019-01-29T01:53:16.085Z,2.40
2019-01-29T01:55:44.901Z,2.40
2019-01-29T01:58:14.118Z,2.40
2019-01-29T02:00:43.036Z,2.50
2019-01-29T02:03:11.935Z,2.40
2019-01-29T02:05:41.132Z,2.40
2019-01-29T02:08:10.182Z,2.40
2019-01-29T02:10:39.140Z,2.40
2019-01-29T02:13:08.083Z,2.40
2019-01-29T02:15:37.035Z,2.40
2019-01-29T02:18:06.272Z,2.40
2019-01-29T02:20:35.508Z,2.40
2019-01-29T02:23:08.032Z,2.40
2019-01-29T02:25:35.076Z,2.40
2019-01-29T02:28:04.849Z,2.40
2019-01-29T02:30:33.773Z,2.50
2019-01-29T02:33:02.890Z,2.40
2019-01-29T02:35:31.792Z,2.40
2019-01-29T02:38:00.677Z,2.40
2019-01-29T02:40:29.944Z,2.40
2019-01-29T02:42:58.816Z,2.40
2019-01-29T02:45:27.701Z,2.40
2019-01-29T02:47:56.590Z,2.50
2019-01-29T02:50:25.494Z,2.50
2019-01-29T02:52:54.588Z,2.50
2019-01-29T02:55:23.803Z,2.50
2019-01-29T02:57:52.883Z,2.50
2019-01-29T03:00:24.097Z,2.60
2019-01-29T03:02:53.046Z,2.60
2019-01-29T03:05:22.038Z,2.60
2019-01-29T03:07:51.455Z,2.60
2019-01-29T03:10:22.235Z,2.60
2019-01-29T03:12:51.518Z,2.70
2019-01-29T03:15:23.364Z,2.60
2019-01-29T03:17:52.371Z,2.60
2019-01-29T03:20:21.390Z,2.60
2019-01-29T03:22:50.430Z,2.60
2019-01-29T03:25:19.401Z,2.60
2019-01-29T03:27:48.444Z,2.70
2019-01-29T03:30:18.231Z,2.60
2019-01-29T03:32:47.202Z,2.60
2019-01-29T03:35:16.925Z,2.60
2019-01-29T03:37:46.175Z,2.70
2019-01-29T03:40:17.563Z,2.70
2019-01-29T03:42:46.495Z,2.80
2019-01-29T03:45:16.840Z,2.70
2019-01-29T03:47:45.766Z,2.70
2019-01-29T03:50:16.593Z,2.70
2019-01-29T03:52:45.481Z,2.70
2019-01-29T03:55:15.007Z,2.70
2019-01-29T03:57:43.969Z,2.70
2019-01-29T04:00:23.951Z,2.70
2019-01-29T04:02:52.880Z,2.60
2019-01-29T04:05:21.854Z,2.60
2019-01-29T04:07:50.979Z,2.70
2019-01-29T04:10:20.017Z,2.70
2019-01-29T04:12:49.269Z,2.60
2019-01-29T04:15:19.130Z,2.60
2019-01-29T04:17:47.995Z,2.60
2019-01-29T04:20:19.351Z,2.50
2019-01-29T04:22:48.507Z,2.60
2019-01-29T04:25:17.563Z,2.60
2019-01-29T04:27:46.460Z,2.60
2019-01-29T04:30:17.189Z,2.60
2019-01-29T04:32:46.424Z,2.50
2019-01-29T04:35:15.520Z,2.50
2019-01-29T04:37:44.475Z,2.50
2019-01-29T04:40:15.363Z,2.50
2019-01-29T04:42:44.328Z,2.60
2019-01-29T04:45:13.919Z,2.50
2019-01-29T04:47:44.316Z,2.50
2019-01-29T04:50:15.649Z,2.50
2019-01-29T04:52:44.507Z,2.60
2019-01-29T04:55:14.514Z,2.60
2019-01-29T04:57:43.545Z,2.60
2019-01-29T05:00:15.354Z,2.60
2019-01-29T05:02:44.219Z,2.60
2019-01-29T05:05:13.361Z,2.60
2019-01-29T05:07:42.512Z,2.70
2019-01-29T05:10:12.894Z,2.70
2019-01-29T05:12:42.401Z,2.70
2019-01-29T05:15:12.862Z,2.60
2019-01-29T05:17:41.712Z,2.70
2019-01-29T05:20:13.330Z,2.70
2019-01-29T05:22:42.150Z,2.70
2019-01-29T05:25:11.346Z,2.80
2019-01-29T05:27:41.305Z,2.80
2019-01-29T05:30:21.243Z,2.80
2019-01-29T05:32:50.255Z,2.70
2019-01-29T05:35:19.605Z,2.70
2019-01-29T05:37:48.757Z,2.70
2019-01-29T05:40:18.828Z,2.70
2019-01-29T05:42:48.162Z,2.70
2019-01-29T05:45:18.444Z,2.60
2019-01-29T05:47:47.410Z,2.70
2019-01-29T05:50:17.207Z,2.60
2019-01-29T05:52:46.741Z,2.70
2019-01-29T05:55:16.463Z,2.70
2019-01-29T05:57:45.754Z,2.70
2019-01-29T06:00:24.139Z,2.70
2019-01-29T06:02:53.107Z,2.70
2019-01-29T06:05:22.559Z,2.70
2019-01-29T06:07:51.465Z,2.80
2019-01-29T06:10:21.023Z,2.80
2019-01-29T06:12:49.967Z,2.80
2019-01-29T06:15:19.584Z,2.80
2019-01-29T06:17:48.555Z,2.80
2019-01-29T06:20:22.095Z,2.80
2019-01-29T06:22:51.245Z,2.80
2019-01-29T06:25:20.401Z,2.80
2019-01-29T06:27:49.562Z,2.80
2019-01-29T06:30:19.911Z,2.80
2019-01-29T06:32:48.873Z,2.80
2019-01-29T06:35:18.678Z,2.70
2019-01-29T06:37:48.368Z,2.70
2019-01-29T06:40:19.949Z,2.70
2019-01-29T06:42:48.926Z,2.80
2019-01-29T06:45:18.447Z,2.80
2019-01-29T06:47:47.640Z,2.80
2019-01-29T06:50:18.854Z,2.70
2019-01-29T06:52:48.112Z,2.70
2019-01-29T06:55:18.689Z,2.70
2019-01-29T06:57:55.151Z,2.70
2019-01-29T07:00:24.306Z,2.70
2019-01-29T07:02:53.400Z,2.60
2019-01-29T07:05:22.654Z,2.60
2019-01-29T07:07:52.280Z,2.70
2019-01-29T07:10:21.638Z,2.60
2019-01-29T07:12:51.195Z,2.60
2019-01-29T07:15:41.301Z,2.60
2019-01-29T07:18:29.971Z,2.60
2019-01-29T07:20:59.137Z,2.60
2019-01-29T07:23:28.011Z,2.60
2019-01-29T07:25:57.213Z,2.60
2019-01-29T07:28:26.619Z,2.60
2019-01-29T07:30:56.510Z,2.70
2019-01-29T07:33:25.450Z,2.70
2019-01-29T07:35:55.095Z,2.70
2019-01-29T07:38:25.074Z,2.80
2019-01-29T07:40:54.448Z,2.80
2019-01-29T07:43:23.719Z,2.90
2019-01-29T07:45:52.679Z,2.90
2019-01-29T07:48:21.570Z,2.90
2019-01-29T07:50:50.817Z,2.90
2019-01-29T07:53:20.018Z,2.90
2019-01-29T07:55:49.103Z,2.90
2019-01-29T07:58:17.890Z,2.90
2019-01-29T08:00:46.917Z,3.00
2019-01-29T08:03:15.811Z,3.00
2019-01-29T08:05:45.441Z,3.10
2019-01-29T08:08:14.498Z,3.10
2019-01-29T08:10:43.435Z,3.20
2019-01-29T08:13:12.763Z,3.10
2019-01-29T08:15:42.099Z,3.20
2019-01-29T08:18:10.875Z,3.20
2019-01-29T08:20:39.930Z,3.20
2019-01-29T08:23:09.044Z,3.30
2019-01-29T08:25:37.929Z,3.40
2019-01-29T08:28:07.217Z,3.30
2019-01-29T08:30:36.663Z,3.40
2019-01-29T08:33:05.851Z,3.40
2019-01-29T08:35:35.407Z,3.50
2019-01-29T08:38:04.473Z,3.50
2019-01-29T08:40:33.456Z,3.60
2019-01-29T08:43:02.655Z,3.70
2019-01-29T08:45:31.603Z,3.60
2019-01-29T08:48:00.564Z,3.70
2019-01-29T08:50:29.485Z,3.70
2019-01-29T08:52:58.291Z,3.80
2019-01-29T08:55:27.183Z,3.90
2019-01-29T08:57:56.512Z,3.80
2019-01-29T09:00:26.240Z,3.80
2019-01-29T09:02:55.428Z,3.80
2019-01-29T09:05:24.383Z,3.70
2019-01-29T09:07:53.961Z,3.80
2019-01-29T09:10:24.677Z,3.90
2019-01-29T09:12:54.128Z,4.00
2019-01-29T09:15:24.013Z,4.00
2019-01-29T09:17:52.884Z,4.10
2019-01-29T09:20:22.205Z,4.00
2019-01-29T09:22:51.679Z,4.00
2019-01-29T09:25:22.702Z,4.10
2019-01-29T09:27:51.887Z,4.10
2019-01-29T09:30:20.864Z,4.10
2019-01-29T09:32:50.208Z,4.10
2019-01-29T09:35:19.142Z,4.10
2019-01-29T09:37:47.975Z,4.20
2019-01-29T09:40:18.392Z,4.30
2019-01-29T09:42:47.259Z,4.40
2019-01-29T09:45:17.462Z,4.40
2019-01-29T09:47:46.656Z,4.60
2019-01-29T09:50:20.811Z,4.50
2019-01-29T09:52:49.750Z,4.50
2019-01-29T09:55:28.111Z,4.60
2019-01-29T09:57:51.183Z,4.70
2019-01-29T10:00:28.993Z,4.70
2019-01-29T10:02:57.941Z,4.80
2019-01-29T10:05:26.995Z,4.70
2019-01-29T10:07:56.069Z,4.80
2019-01-29T10:10:25.133Z,4.90
2019-01-29T10:12:57.374Z,4.80
2019-01-29T10:15:28.199Z,4.80
2019-01-29T10:17:57.362Z,4.80
2019-01-29T10:20:27.095Z,4.90
2019-01-29T10:22:56.010Z,4.70
2019-01-29T10:25:27.604Z,4.80
2019-01-29T10:30:31.181Z,4.70
2019-01-29T10:33:02.057Z,4.60
2019-01-29T10:35:33.315Z,4.50
2019-01-29T10:38:02.195Z,4.60
2019-01-29T10:40:31.198Z,4.70
2019-01-29T10:43:00.951Z,4.70
2019-01-29T10:45:30.321Z,4.60
2019-01-29T10:47:59.260Z,4.50
2019-01-29T10:50:29.121Z,4.50
2019-01-29T10:52:58.345Z,4.40
2019-01-29T10:55:27.789Z,4.40
2019-01-29T10:57:56.696Z,4.50
2019-01-29T11:00:28.785Z,4.60
2019-01-29T11:02:58.102Z,4.70
2019-01-29T11:05:27.380Z,4.90
2019-01-29T11:07:56.485Z,4.80
2019-01-29T11:10:25.626Z,4.80
2019-01-29T11:12:54.643Z,4.70
2019-01-29T11:15:29.716Z,4.90
2019-01-29T11:17:58.963Z,4.90
2019-01-29T11:20:27.952Z,4.70
2019-01-29T11:25:32.247Z,5.00
2019-01-29T11:28:02.178Z,5.20
2019-01-29T11:30:31.851Z,5.20
2019-01-29T11:33:00.887Z,5.20
2019-01-29T11:35:29.858Z,5.20
2019-01-29T11:38:05.926Z,5.20
2019-01-29T11:40:35.911Z,5.00
2019-01-29T11:43:06.479Z,5.00
2019-01-29T11:45:42.074Z,4.90
2019-01-29T11:48:10.973Z,5.00
2019-01-29T11:50:39.852Z,5.10
2019-01-29T11:53:08.974Z,5.20
2019-01-29T11:55:38.198Z,5.20
2019-01-29T11:58:08.270Z,5.10
2019-01-29T12:00:42.099Z,5.30
2019-01-29T12:03:11.039Z,5.30
2019-01-29T12:05:39.999Z,5.30
2019-01-29T12:08:09.220Z,5.30
2019-01-29T12:10:38.210Z,5.40
2019-01-29T12:13:07.287Z,5.40
2019-01-29T12:15:36.603Z,5.50
2019-01-29T12:18:06.314Z,5.40
2019-01-29T12:20:35.265Z,5.50
2019-01-29T12:23:04.468Z,5.60
2019-01-29T12:25:33.411Z,5.60
2019-01-29T12:28:02.463Z,5.60
2019-01-29T12:30:31.438Z,5.50
2019-01-29T12:33:01.046Z,5.40
2019-01-29T12:35:30.057Z,5.40
2019-01-29T12:37:58.951Z,5.30
2019-01-29T12:40:27.908Z,5.50
2019-01-29T12:42:56.876Z,5.80
2019-01-29T12:45:26.063Z,5.80
2019-01-29T12:47:55.771Z,5.70
2019-01-29T12:50:25.222Z,5.50
2019-01-29T12:53:11.921Z,5.40
2019-01-29T12:55:40.992Z,5.40
2019-01-29T12:58:09.838Z,5.50
2019-01-29T13:00:54.836Z,5.70
2019-01-29T13:03:23.630Z,5.70
2019-01-29T13:05:53.055Z,5.70
2019-01-29T13:08:22.505Z,5.70
2019-01-29T13:10:51.587Z,5.80
2019-01-29T13:13:21.123Z,5.90
2019-01-29T13:15:50.031Z,5.90
2019-01-29T13:18:18.999Z,5.80
2019-01-29T13:20:47.891Z,5.70
2019-01-29T13:23:17.175Z,5.80
2019-01-29T13:25:46.123Z,5.80
2019-01-29T13:28:15.293Z,5.60
2019-01-29T13:30:44.563Z,5.70
2019-01-29T13:33:14.682Z,5.70
2019-01-29T13:35:43.844Z,5.80
2019-01-29T13:38:13.097Z,5.90
2019-01-29T13:40:42.356Z,5.90
2019-01-29T13:43:11.270Z,5.60
2019-01-29T13:45:42.512Z,5.40
2019-01-29T13:48:11.544Z,5.40
2019-01-29T13:50:44.066Z,5.50
2019-01-29T13:53:13.007Z,5.30
2019-01-29T13:55:41.961Z,5.20
2019-01-29T13:58:10.955Z,5.30
2019-01-29T14:00:59.626Z,5.40
2019-01-29T14:03:28.459Z,5.30
2019-01-29T14:05:57.366Z,5.20
2019-01-29T14:08:26.639Z,5.20
2019-01-29T14:10:55.645Z,5.20
2019-01-29T14:13:24.603Z,5.20
2019-01-29T14:15:55.372Z,5.20
2019-01-29T14:18:27.652Z,5.00
2019-01-29T14:20:57.237Z,4.80
2019-01-29T14:23:26.234Z,4.80
2019-01-29T14:25:55.448Z,4.80
2019-01-29T14:28:24.373Z,4.90
2019-01-29T14:30:53.282Z,4.80
2019-01-29T14:33:22.280Z,4.70
2019-01-29T14:35:56.302Z,4.70
2019-01-29T14:39:06.268Z,4.60
2019-01-29T14:41:35.331Z,4.50
2019-01-29T14:44:06.563Z,4.40
2019-01-29T14:46:35.559Z,4.60
2019-01-29T14:49:05.884Z,4.60
2019-01-29T14:51:35.439Z,4.60
2019-01-29T14:54:05.044Z,4.60
2019-01-29T14:56:34.000Z,4.70
2019-01-29T14:59:02.823Z,4.60
2019-01-29T15:01:31.768Z,4.50
2019-01-29T15:04:01.263Z,4.50
2019-01-29T15:06:32.641Z,4.30
2019-01-29T15:09:32.979Z,4.30
2019-01-29T15:12:03.187Z,4.10
2019-01-29T15:14:32.384Z,4.00
2019-01-29T15:17:23.464Z,4.10
2019-01-29T15:19:58.314Z,4.10
2019-01-29T15:22:27.627Z,4.10
2019-01-29T15:24:56.462Z,4.10
2019-01-29T15:27:26.119Z,4.00
2019-01-29T15:29:55.174Z,3.90
2019-01-29T15:32:24.475Z,3.90
2019-01-29T15:34:53.505Z,3.80
2019-01-29T15:37:22.847Z,3.70
2019-01-29T15:39:51.856Z,3.60
2019-01-29T15:42:21.118Z,3.60
2019-01-29T15:44:50.216Z,3.60
2019-01-29T15:47:19.398Z,3.50
2019-01-29T15:49:48.833Z,3.50
2019-01-29T15:52:17.885Z,3.40
2019-01-29T15:54:46.796Z,3.30
2019-01-29T15:57:15.833Z,3.30
2019-01-29T15:59:44.949Z,3.30
2019-01-29T16:02:14.257Z,3.30
2019-01-29T16:04:43.229Z,3.20
2019-01-29T16:07:12.901Z,3.20
2019-01-29T16:09:42.155Z,3.10
2019-01-29T16:12:12.176Z,3.10
2019-01-29T16:14:41.377Z,3.10
2019-01-29T16:17:10.626Z,3.10
2019-01-29T16:19:39.564Z,3.00
2019-01-29T16:22:08.471Z,3.00
2019-01-29T16:24:37.674Z,3.00
2019-01-29T16:27:07.285Z,2.90
2019-01-29T16:29:36.247Z,2.90
2019-01-29T16:32:05.342Z,2.80
2019-01-29T16:34:35.010Z,2.80
2019-01-29T16:37:04.125Z,2.80
2019-01-29T16:39:33.264Z,2.70
2019-01-29T16:42:02.234Z,2.70
2019-01-29T16:44:31.267Z,2.60
2019-01-29T16:47:00.109Z,2.70
2019-01-29T16:49:29.270Z,2.70
2019-01-29T16:51:58.058Z,2.60
2019-01-29T16:54:26.991Z,2.60
2019-01-29T16:56:55.933Z,2.60
2019-01-29T16:59:24.857Z,2.60
2019-01-29T17:01:53.754Z,2.50
2019-01-29T17:04:22.650Z,2.60
2019-01-29T17:06:51.582Z,2.70
2019-01-29T17:09:20.847Z,2.70
2019-01-29T17:11:49.688Z,2.80
2019-01-29T17:14:18.601Z,2.70
2019-01-29T17:16:47.499Z,2.70
2019-01-29T17:19:16.395Z,2.60
2019-01-29T17:21:45.534Z,2.70
2019-01-29T17:24:14.601Z,2.70
2019-01-29T17:26:43.715Z,2.80
2019-01-29T17:29:12.682Z,2.90
2019-01-29T17:31:41.541Z,2.80
2019-01-29T17:34:10.649Z,2.80
2019-01-29T17:36:39.493Z,2.80
2019-01-29T17:39:09.107Z,2.70
2019-01-29T17:41:38.537Z,2.70
2019-01-29T17:44:07.740Z,2.70
2019-01-29T17:46:36.838Z,2.70
2019-01-29T17:49:05.961Z,2.60
2019-01-29T17:51:34.995Z,2.50
2019-01-29T17:54:04.295Z,2.50
2019-01-29T17:56:33.191Z,2.50
2019-01-29T17:59:02.145Z,2.50
2019-01-29T18:01:30.950Z,2.50
2019-01-29T18:04:00.044Z,2.60
2019-01-29T18:06:29.029Z,2.60
2019-01-29T18:08:57.962Z,2.60
2019-01-29T18:11:26.955Z,2.60
2019-01-29T18:13:56.099Z,2.60
2019-01-29T18:16:25.484Z,2.60
2019-01-29T18:18:54.405Z,2.60
2019-01-29T18:21:23.433Z,2.60
2019-01-29T18:23:52.351Z,2.60
2019-01-29T18:26:21.208Z,2.60
2019-01-29T18:28:50.196Z,2.60
2019-01-29T18:31:19.196Z,2.50
2019-01-29T18:34:07.302Z,2.60
2019-01-29T18:36:36.338Z,2.50
2019-01-29T18:39:07.876Z,2.50
2019-01-29T18:41:36.759Z,2.50
2019-01-29T18:44:07.537Z,2.60
2019-01-29T18:46:36.427Z,2.60
2019-01-29T18:49:05.874Z,2.50
2019-01-29T18:51:34.765Z,2.50
2019-01-29T18:54:03.962Z,2.60
2019-01-29T18:56:33.054Z,2.60
2019-01-29T18:59:01.941Z,2.60
2019-01-29T19:01:30.940Z,2.60
2019-01-29T19:03:59.730Z,2.50
2019-01-29T19:06:29.151Z,2.50
2019-01-29T19:08:57.991Z,2.50
2019-01-29T19:11:26.863Z,2.50
2019-01-29T19:13:55.710Z,2.50
2019-01-29T19:16:24.655Z,2.50
2019-01-29T19:18:53.698Z,2.50
2019-01-29T19:21:22.930Z,2.50
2019-01-29T19:23:51.704Z,2.50
2019-01-29T19:26:20.754Z,2.50
2019-01-29T19:28:50.117Z,2.50
2019-01-29T19:31:19.215Z,2.50
2019-01-29T19:33:48.093Z,2.50
2019-01-29T19:36:17.246Z,2.50
2019-01-29T19:38:46.031Z,2.50
2019-01-29T19:41:14.905Z,2.40
2019-01-29T19:43:44.287Z,2.50
2019-01-29T19:46:13.075Z,2.50
2019-01-29T19:48:41.859Z,2.50
2019-01-29T19:51:10.795Z,2.40
2019-01-29T19:53:39.644Z,2.40
2019-01-29T19:56:08.515Z,2.40
2019-01-29T19:58:37.676Z,2.40
2019-01-29T20:01:07.245Z,2.40
2019-01-29T20:03:36.272Z,2.40
2019-01-29T20:06:05.324Z,2.40
2019-01-29T20:08:34.416Z,2.50
2019-01-29T20:11:03.326Z,2.50
2019-01-29T20:13:32.324Z,2.50
2019-01-29T20:16:01.232Z,2.50
2019-01-29T20:18:30.003Z,2.50
2019-01-29T20:20:59.137Z,2.50
2019-01-29T20:23:27.911Z,2.50
2019-01-29T20:25:56.767Z,2.50
2019-01-29T20:28:25.542Z,2.50
2019-01-29T20:30:54.514Z,2.50
2019-01-29T20:33:23.451Z,2.50
2019-01-29T20:35:52.467Z,2.50
2019-01-29T20:38:21.665Z,2.50
2019-01-29T20:40:51.050Z,2.40
2019-01-29T20:43:19.896Z,2.40
2019-01-29T20:45:49.009Z,2.40
2019-01-29T20:48:18.007Z,2.50
2019-01-29T20:50:46.981Z,2.40
2019-01-29T20:53:15.827Z,2.40
2019-01-29T20:55:44.805Z,2.40
2019-01-29T20:58:13.588Z,2.40
2019-01-29T21:00:42.796Z,2.40
2019-01-29T21:03:11.654Z,2.30
2019-01-29T21:05:40.649Z,2.40
2019-01-29T21:08:09.610Z,2.40
2019-01-29T21:10:38.507Z,2.40
2019-01-29T21:13:07.479Z,2.30
2019-01-29T21:15:38.435Z,2.30
2019-01-29T21:18:07.282Z,2.30
2019-01-29T21:20:36.323Z,2.30
2019-01-29T21:23:05.472Z,2.30
2019-01-29T21:25:34.389Z,2.30
2019-01-29T21:28:03.602Z,2.30
2019-01-29T21:30:34.651Z,2.30
2019-01-29T21:33:04.002Z,2.30
2019-01-29T21:35:32.979Z,2.30
2019-01-29T21:38:02.215Z,2.30
2019-01-29T21:40:31.301Z,2.30
2019-01-29T21:43:00.223Z,2.30
2019-01-29T21:45:29.084Z,2.30
2019-01-29T21:47:59.843Z,2.30
2019-01-29T21:50:29.905Z,2.40
2019-01-29T21:52:59.158Z,2.40
2019-01-29T21:55:28.841Z,2.30
2019-01-29T21:57:57.975Z,2.30
2019-01-29T22:00:29.488Z,2.30
2019-01-29T22:02:58.632Z,2.30
2019-01-29T22:05:27.606Z,2.30
2019-01-29T22:07:57.619Z,2.30
2019-01-29T22:10:26.701Z,2.20
2019-01-29T22:12:55.715Z,2.40
2019-01-29T22:15:24.588Z,2.40
2019-01-29T22:17:53.556Z,2.30
2019-01-29T22:20:22.914Z,2.30
2019-01-29T22:22:51.860Z,2.30
2019-01-29T22:25:21.071Z,2.30
2019-01-29T22:27:50.266Z,2.30
2019-01-29T22:30:30.946Z,2.30
2019-01-29T22:33:00.092Z,2.20
2019-01-29T22:35:29.247Z,2.20
2019-01-29T22:37:58.315Z,2.20
2019-01-29T22:40:28.240Z,2.20
2019-01-29T22:42:58.015Z,2.10
2019-01-29T22:45:27.186Z,2.20
2019-01-29T22:47:56.170Z,2.10
2019-01-29T22:50:29.959Z,2.10
2019-01-29T22:52:58.966Z,2.10
2019-01-29T22:55:27.828Z,2.10
2019-01-29T22:57:56.683Z,2.10
2019-01-29T23:00:55.489Z,2.20
2019-01-29T23:03:29.588Z,2.20
2019-01-29T23:06:31.783Z,2.10
2019-01-29T23:09:00.643Z,2.10
2019-01-29T23:11:29.558Z,2.10
2019-01-29T23:13:58.450Z,2.00
2019-01-29T23:16:27.301Z,2.00
2019-01-29T23:18:56.154Z,2.00
2019-01-29T23:21:25.066Z,2.00
2019-01-29T23:23:53.845Z,2.00
2019-01-29T23:26:22.640Z,1.90
2019-01-29T23:28:51.510Z,2.00
2019-01-29T23:31:20.466Z,2.00
2019-01-29T23:33:49.478Z,2.00
2019-01-29T23:36:18.573Z,2.00
2019-01-29T23:38:47.639Z,2.00
2019-01-29T23:41:16.605Z,1.90
2019-01-29T23:43:45.503Z,2.00
2019-01-29T23:46:14.355Z,2.00
2019-01-29T23:48:43.114Z,2.00
2019-01-29T23:51:11.915Z,2.00
2019-01-29T23:53:40.691Z,2.00
2019-01-29T23:56:09.775Z,1.90
2019-01-29T23:58:38.624Z,2.00
